sensor_id;sensor_type;location;lat;lon;timestamp;P1;durP1;ratioP1;P2;durP2;ratioP2
10440;SDS011;5268;49.346;9.522;2023-10-19T03:10:15;23.90;;;17.38;;
10440;SDS011;5268;49.346;9.522;2023-10-19T03:15:24;20.40;;;17.23;;
10440;SDS011;5268;49.346;9.522;2023-10-19T03:20:29;17.30;;;15.18;;
10440;SDS011;5268;49.346;9.522;2023-10-19T03:25:34;36.25;;;20.40;;
10440;SDS011;5268;49.346;9.522;2023-10-19T03:31:06;22.70;;;17.92;;
10440;SDS011;5268;49.346;9.522;2023-10-19T03:36:09;22.42;;;17.67;;
10440;SDS011;5268;49.346;9.522;2023-10-19T03:41:14;22.58;;;17.77;;
10440;SDS011;5268;49.346;9.522;2023-10-19T03:46:21;28.00;;;20.25;;
10440;SDS011;5268;49.346;9.522;2023-10-19T03:51:28;21.92;;;18.30;;
10440;SDS011;5268;49.346;9.522;2023-10-19T03:56:41;22.00;;;17.50;;
10440;SDS011;5268;49.346;9.522;2023-10-19T04:01:44;22.20;;;17.30;;
10440;SDS011;5268;49.346;9.522;2023-10-19T04:06:46;25.35;;;18.58;;
10440;SDS011;5268;49.346;9.522;2023-10-19T04:11:51;21.90;;;18.35;;
10440;SDS011;5268;49.346;9.522;2023-10-19T04:16:53;27.45;;;19.60;;
10440;SDS011;5268;49.346;9.522;2023-10-19T04:21:56;24.80;;;19.73;;
10440;SDS011;5268;49.346;9.522;2023-10-19T04:26:59;29.98;;;19.73;;
10440;SDS011;5268;49.346;9.522;2023-10-19T04:32:01;23.05;;;18.23;;
10440;SDS011;5268;49.346;9.522;2023-10-19T04:37:07;25.65;;;19.27;;
10440;SDS011;5268;49.346;9.522;2023-10-19T04:42:14;32.53;;;22.00;;
10440;SDS011;5268;49.346;9.522;2023-10-19T04:47:16;24.73;;;18.35;;
10440;SDS011;5268;49.346;9.522;2023-10-19T04:52:18;22.23;;;17.58;;
10440;SDS011;5268;49.346;9.522;2023-10-19T04:57:22;27.42;;;20.13;;
10440;SDS011;5268;49.346;9.522;2023-10-19T05:02:24;19.65;;;16.60;;
10440;SDS011;5268;49.346;9.522;2023-10-19T05:07:26;22.95;;;18.10;;
10440;SDS011;5268;49.346;9.522;2023-10-19T05:12:30;26.00;;;18.60;;
10440;SDS011;5268;49.346;9.522;2023-10-19T05:17:32;22.92;;;18.25;;
10440;SDS011;5268;49.346;9.522;2023-10-19T05:22:34;21.63;;;17.80;;
10440;SDS011;5268;49.346;9.522;2023-10-19T05:27:38;25.60;;;18.05;;
10440;SDS011;5268;49.346;9.522;2023-10-19T05:32:43;27.02;;;20.20;;
10440;SDS011;5268;49.346;9.522;2023-10-19T05:37:46;23.60;;;18.77;;
10440;SDS011;5268;49.346;9.522;2023-10-19T05:42:50;23.50;;;17.90;;
10440;SDS011;5268;49.346;9.522;2023-10-19T05:47:52;32.53;;;22.40;;
10440;SDS011;5268;49.346;9.522;2023-10-19T05:52:54;29.42;;;20.77;;
10440;SDS011;5268;49.346;9.522;2023-10-19T05:57:58;22.65;;;17.38;;
10440;SDS011;5268;49.346;9.522;2023-10-19T06:03:01;22.65;;;17.95;;
10440;SDS011;5268;49.346;9.522;2023-10-19T06:08:05;21.17;;;17.85;;
10440;SDS011;5268;49.346;9.522;2023-10-19T06:13:09;23.15;;;17.00;;
10440;SDS011;5268;49.346;9.522;2023-10-19T06:18:43;24.38;;;18.08;;
10440;SDS011;5268;49.346;9.522;2023-10-19T06:30:20;20.33;;;17.80;;
10440;SDS011;5268;49.346;9.522;2023-10-19T06:35:28;24.73;;;19.17;;
10440;SDS011;5268;49.346;9.522;2023-10-19T06:40:43;26.58;;;19.85;;
10440;SDS011;5268;49.346;9.522;2023-10-19T06:46:18;25.63;;;20.38;;
10440;SDS011;5268;49.346;9.522;2023-10-19T06:51:21;23.83;;;19.38;;
10440;SDS011;5268;49.346;9.522;2023-10-19T06:56:23;32.95;;;23.75;;
10440;SDS011;5268;49.346;9.522;2023-10-19T07:01:27;20.23;;;18.00;;
10440;SDS011;5268;49.346;9.522;2023-10-19T07:06:31;20.55;;;17.73;;
10440;SDS011;5268;49.346;9.522;2023-10-19T07:11:33;19.35;;;17.13;;
10440;SDS011;5268;49.346;9.522;2023-10-19T07:16:37;21.17;;;17.73;;
10440;SDS011;5268;49.346;9.522;2023-10-19T07:21:39;21.05;;;18.20;;
10440;SDS011;5268;49.346;9.522;2023-10-19T07:26:43;21.50;;;18.38;;
10440;SDS011;5268;49.346;9.522;2023-10-19T07:32:04;25.17;;;22.45;;
10440;SDS011;5268;49.346;9.522;2023-10-19T07:37:08;26.92;;;22.38;;
10440;SDS011;5268;49.346;9.522;2023-10-19T07:42:15;23.17;;;19.15;;
10440;SDS011;5268;49.346;9.522;2023-10-19T07:47:18;25.75;;;21.60;;
10440;SDS011;5268;49.346;9.522;2023-10-19T07:52:20;25.85;;;21.35;;
10440;SDS011;5268;49.346;9.522;2023-10-19T07:57:23;29.35;;;24.88;;
10440;SDS011;5268;49.346;9.522;2023-10-19T08:02:26;39.88;;;35.70;;
10440;SDS011;5268;49.346;9.522;2023-10-19T08:07:29;27.48;;;22.90;;
10440;SDS011;5268;49.346;9.522;2023-10-19T08:12:31;21.30;;;18.35;;
10440;SDS011;5268;49.346;9.522;2023-10-19T08:17:35;19.30;;;16.98;;
10440;SDS011;5268;49.346;9.522;2023-10-19T08:22:38;20.13;;;17.42;;
10440;SDS011;5268;49.346;9.522;2023-10-19T08:27:41;20.77;;;17.70;;
10440;SDS011;5268;49.346;9.522;2023-10-19T08:32:46;25.73;;;20.65;;
10440;SDS011;5268;49.346;9.522;2023-10-19T08:37:57;23.65;;;20.50;;
10440;SDS011;5268;49.346;9.522;2023-10-19T08:43:28;25.83;;;20.35;;
10440;SDS011;5268;49.346;9.522;2023-10-19T08:48:44;25.20;;;21.25;;
10440;SDS011;5268;49.346;9.522;2023-10-19T08:54:02;25.50;;;21.35;;
10440;SDS011;5268;49.346;9.522;2023-10-19T08:59:27;21.63;;;19.33;;
10440;SDS011;5268;49.346;9.522;2023-10-19T09:04:54;22.52;;;19.05;;
10440;SDS011;5268;49.346;9.522;2023-10-19T09:10:17;21.80;;;18.55;;
10440;SDS011;5268;49.346;9.522;2023-10-19T09:15:39;17.67;;;15.82;;
10440;SDS011;5268;49.346;9.522;2023-10-19T09:20:45;22.55;;;18.98;;
10440;SDS011;5268;49.346;9.522;2023-10-19T09:25:55;21.10;;;17.92;;
10440;SDS011;5268;49.346;9.522;2023-10-19T09:31:08;16.95;;;15.07;;
10440;SDS011;5268;49.346;9.522;2023-10-19T09:36:42;19.00;;;17.00;;
10440;SDS011;5268;49.346;9.522;2023-10-19T09:41:54;15.45;;;13.85;;
10440;SDS011;5268;49.346;9.522;2023-10-19T09:47:07;15.10;;;13.50;;
10440;SDS011;5268;49.346;9.522;2023-10-19T09:52:15;14.60;;;12.13;;
10440;SDS011;5268;49.346;9.522;2023-10-19T09:57:21;11.15;;;8.70;;
10440;SDS011;5268;49.346;9.522;2023-10-19T10:02:29;10.10;;;6.50;;
10440;SDS011;5268;49.346;9.522;2023-10-19T10:07:35;10.13;;;7.18;;
10440;SDS011;5268;49.346;9.522;2023-10-19T10:12:37;7.95;;;6.20;;
10440;SDS011;5268;49.346;9.522;2023-10-19T10:17:39;6.97;;;5.85;;
10440;SDS011;5268;49.346;9.522;2023-10-19T10:22:43;7.70;;;4.90;;
10440;SDS011;5268;49.346;9.522;2023-10-19T10:27:48;8.43;;;5.93;;
10440;SDS011;5268;49.346;9.522;2023-10-19T10:32:52;7.88;;;5.00;;
10440;SDS011;5268;49.346;9.522;2023-10-19T10:37:57;8.10;;;5.55;;
10440;SDS011;5268;49.346;9.522;2023-10-19T10:43:05;6.00;;;5.35;;
10440;SDS011;5268;49.346;9.522;2023-10-19T10:48:12;5.80;;;4.50;;
10440;SDS011;5268;49.346;9.522;2023-10-19T10:53:15;4.18;;;3.78;;
10440;SDS011;5268;49.346;9.522;2023-10-19T10:58:18;5.22;;;3.30;;
10440;SDS011;5268;49.346;9.522;2023-10-19T11:03:20;5.55;;;3.50;;
10440;SDS011;5268;49.346;9.522;2023-10-19T11:08:25;4.78;;;3.55;;
10440;SDS011;5268;49.346;9.522;2023-10-19T11:13:27;4.03;;;3.58;;
10440;SDS011;5268;49.346;9.522;2023-10-19T11:18:31;6.50;;;5.38;;
10440;SDS011;5268;49.346;9.522;2023-10-19T11:23:37;5.50;;;4.75;;
10440;SDS011;5268;49.346;9.522;2023-10-19T11:28:41;6.13;;;4.43;;
10440;SDS011;5268;49.346;9.522;2023-10-19T11:33:47;5.32;;;4.00;;
10440;SDS011;5268;49.346;9.522;2023-10-19T11:38:51;7.00;;;4.35;;
10440;SDS011;5268;49.346;9.522;2023-10-19T11:43:54;4.97;;;3.78;;
10440;SDS011;5268;49.346;9.522;2023-10-19T11:48:56;4.80;;;3.70;;
10440;SDS011;5268;49.346;9.522;2023-10-19T11:53:59;6.72;;;3.63;;
10440;SDS011;5268;49.346;9.522;2023-10-19T11:59:01;5.63;;;4.03;;
10440;SDS011;5268;49.346;9.522;2023-10-19T12:04:03;4.13;;;3.58;;
10440;SDS011;5268;49.346;9.522;2023-10-19T12:09:08;5.00;;;3.63;;
10440;SDS011;5268;49.346;9.522;2023-10-19T12:14:15;7.40;;;4.10;;
10440;SDS011;5268;49.346;9.522;2023-10-19T12:19:17;5.75;;;4.15;;
10440;SDS011;5268;49.346;9.522;2023-10-19T12:24:21;4.80;;;4.05;;
10440;SDS011;5268;49.346;9.522;2023-10-19T12:29:23;4.97;;;4.32;;
10440;SDS011;5268;49.346;9.522;2023-10-19T12:34:25;6.07;;;4.40;;
10440;SDS011;5268;49.346;9.522;2023-10-19T12:39:31;7.60;;;5.03;;
10440;SDS011;5268;49.346;9.522;2023-10-19T12:44:43;5.90;;;4.28;;
10440;SDS011;5268;49.346;9.522;2023-10-19T12:49:45;5.82;;;4.82;;
10440;SDS011;5268;49.346;9.522;2023-10-19T12:54:49;7.55;;;5.90;;
10440;SDS011;5268;49.346;9.522;2023-10-19T12:59:59;11.88;;;7.68;;
10440;SDS011;5268;49.346;9.522;2023-10-19T13:05:06;10.40;;;7.35;;
10440;SDS011;5268;49.346;9.522;2023-10-19T13:10:10;11.07;;;7.18;;
10440;SDS011;5268;49.346;9.522;2023-10-19T13:15:12;10.57;;;6.57;;
10440;SDS011;5268;49.346;9.522;2023-10-19T13:20:16;7.05;;;5.50;;
10440;SDS011;5268;49.346;9.522;2023-10-19T13:25:21;8.02;;;5.72;;
10440;SDS011;5268;49.346;9.522;2023-10-19T13:30:39;6.10;;;4.95;;
10440;SDS011;5268;49.346;9.522;2023-10-19T13:35:42;6.35;;;5.43;;
10440;SDS011;5268;49.346;9.522;2023-10-19T13:40:47;6.50;;;4.88;;
10440;SDS011;5268;49.346;9.522;2023-10-19T13:45:52;5.90;;;4.30;;
10440;SDS011;5268;49.346;9.522;2023-10-19T13:50:56;6.20;;;4.00;;
10440;SDS011;5268;49.346;9.522;2023-10-19T13:56:11;6.47;;;3.85;;
10440;SDS011;5268;49.346;9.522;2023-10-19T14:01:17;8.27;;;4.40;;
10440;SDS011;5268;49.346;9.522;2023-10-19T14:06:24;5.78;;;4.00;;
10440;SDS011;5268;49.346;9.522;2023-10-19T14:11:28;8.05;;;6.00;;
10440;SDS011;5268;49.346;9.522;2023-10-19T14:16:30;7.35;;;6.63;;
10440;SDS011;5268;49.346;9.522;2023-10-19T14:21:32;6.38;;;5.47;;
10440;SDS011;5268;49.346;9.522;2023-10-19T14:26:39;5.72;;;4.43;;
10440;SDS011;5268;49.346;9.522;2023-10-19T14:31:42;6.43;;;4.30;;
10440;SDS011;5268;49.346;9.522;2023-10-19T14:36:44;5.68;;;4.50;;
10440;SDS011;5268;49.346;9.522;2023-10-19T14:41:49;3.97;;;3.60;;
10440;SDS011;5268;49.346;9.522;2023-10-19T14:46:51;3.92;;;3.60;;
10440;SDS011;5268;49.346;9.522;2023-10-19T14:51:53;5.43;;;3.40;;
10440;SDS011;5268;49.346;9.522;2023-10-19T14:56:57;3.60;;;3.10;;
10440;SDS011;5268;49.346;9.522;2023-10-19T15:01:59;5.55;;;3.10;;
10440;SDS011;5268;49.346;9.522;2023-10-19T15:07:01;3.58;;;3.00;;
10440;SDS011;5268;49.346;9.522;2023-10-19T15:12:05;5.07;;;4.38;;
10440;SDS011;5268;49.346;9.522;2023-10-19T15:17:07;5.85;;;4.32;;
10440;SDS011;5268;49.346;9.522;2023-10-19T15:22:09;3.78;;;3.20;;
10440;SDS011;5268;49.346;9.522;2023-10-19T15:27:15;4.35;;;3.53;;
10440;SDS011;5268;49.346;9.522;2023-10-19T15:32:18;4.82;;;3.50;;
10440;SDS011;5268;49.346;9.522;2023-10-19T15:37:20;6.78;;;4.30;;
10440;SDS011;5268;49.346;9.522;2023-10-19T15:42:24;3.42;;;2.78;;
10440;SDS011;5268;49.346;9.522;2023-10-19T15:47:26;5.07;;;3.33;;
10440;SDS011;5268;49.346;9.522;2023-10-19T15:52:30;5.75;;;3.92;;
10440;SDS011;5268;49.346;9.522;2023-10-19T15:57:36;6.13;;;4.20;;
10440;SDS011;5268;49.346;9.522;2023-10-19T16:02:39;6.70;;;4.13;;
10440;SDS011;5268;49.346;9.522;2023-10-19T16:07:42;4.93;;;3.17;;
10440;SDS011;5268;49.346;9.522;2023-10-19T16:12:45;4.65;;;3.65;;
10440;SDS011;5268;49.346;9.522;2023-10-19T16:17:47;5.25;;;3.80;;
10440;SDS011;5268;49.346;9.522;2023-10-19T16:22:50;5.15;;;3.97;;
10440;SDS011;5268;49.346;9.522;2023-10-19T16:27:55;5.53;;;4.80;;
10440;SDS011;5268;49.346;9.522;2023-10-19T16:32:57;5.55;;;4.68;;
10440;SDS011;5268;49.346;9.522;2023-10-19T16:38:00;7.80;;;5.60;;
10440;SDS011;5268;49.346;9.522;2023-10-19T16:43:09;6.30;;;5.30;;
10440;SDS011;5268;49.346;9.522;2023-10-19T16:48:13;6.97;;;5.18;;
10440;SDS011;5268;49.346;9.522;2023-10-19T16:53:15;8.05;;;7.25;;
10440;SDS011;5268;49.346;9.522;2023-10-19T16:58:19;10.43;;;8.10;;
10440;SDS011;5268;49.346;9.522;2023-10-19T17:03:21;8.05;;;7.25;;
10440;SDS011;5268;49.346;9.522;2023-10-19T17:08:25;5.80;;;5.22;;
10440;SDS011;5268;49.346;9.522;2023-10-19T17:13:32;6.13;;;4.20;;
10440;SDS011;5268;49.346;9.522;2023-10-19T17:18:36;5.22;;;4.70;;
10440;SDS011;5268;49.346;9.522;2023-10-19T17:23:39;6.40;;;5.80;;
10440;SDS011;5268;49.346;9.522;2023-10-19T17:28:44;6.15;;;5.07;;
10440;SDS011;5268;49.346;9.522;2023-10-19T17:33:48;6.03;;;4.93;;
10440;SDS011;5268;49.346;9.522;2023-10-19T17:38:53;5.95;;;5.38;;
10440;SDS011;5268;49.346;9.522;2023-10-19T17:43:58;6.97;;;5.82;;
10440;SDS011;5268;49.346;9.522;2023-10-19T17:49:09;7.18;;;5.93;;
10440;SDS011;5268;49.346;9.522;2023-10-19T17:54:13;7.72;;;6.28;;
10440;SDS011;5268;49.346;9.522;2023-10-19T17:59:17;11.77;;;7.70;;
10440;SDS011;5268;49.346;9.522;2023-10-19T18:04:19;7.90;;;6.85;;
10440;SDS011;5268;49.346;9.522;2023-10-19T18:09:21;10.25;;;7.45;;
10440;SDS011;5268;49.346;9.522;2023-10-19T18:14:25;11.45;;;10.13;;
10440;SDS011;5268;49.346;9.522;2023-10-19T18:19:28;16.92;;;14.10;;
10440;SDS011;5268;49.346;9.522;2023-10-19T18:24:32;18.25;;;15.20;;
10440;SDS011;5268;49.346;9.522;2023-10-19T18:29:35;10.90;;;9.80;;
10440;SDS011;5268;49.346;9.522;2023-10-19T18:34:38;14.63;;;12.13;;
10440;SDS011;5268;49.346;9.522;2023-10-19T18:39:40;11.57;;;10.43;;
10440;SDS011;5268;49.346;9.522;2023-10-19T18:44:47;16.13;;;13.77;;
10440;SDS011;5268;49.346;9.522;2023-10-19T18:49:49;15.80;;;13.35;;
10440;SDS011;5268;49.346;9.522;2023-10-19T18:54:57;11.38;;;10.23;;
10440;SDS011;5268;49.346;9.522;2023-10-19T19:00:05;16.48;;;13.80;;
10440;SDS011;5268;49.346;9.522;2023-10-19T19:05:08;12.80;;;11.35;;
10440;SDS011;5268;49.346;9.522;2023-10-19T19:10:10;9.88;;;8.88;;
10440;SDS011;5268;49.346;9.522;2023-10-19T19:15:14;11.88;;;9.68;;
10440;SDS011;5268;49.346;9.522;2023-10-19T19:20:17;13.98;;;10.10;;
10440;SDS011;5268;49.346;9.522;2023-10-19T19:25:21;16.05;;;11.20;;
10440;SDS011;5268;49.346;9.522;2023-10-19T19:30:24;24.50;;;19.02;;
10440;SDS011;5268;49.346;9.522;2023-10-19T19:35:27;17.95;;;14.32;;
10440;SDS011;5268;49.346;9.522;2023-10-19T19:40:29;10.52;;;9.00;;
10440;SDS011;5268;49.346;9.522;2023-10-19T19:45:32;13.02;;;11.65;;
10440;SDS011;5268;49.346;9.522;2023-10-19T19:50:36;20.38;;;15.32;;
10440;SDS011;5268;49.346;9.522;2023-10-19T19:55:42;10.55;;;9.20;;
10440;SDS011;5268;49.346;9.522;2023-10-19T20:00:47;10.85;;;8.88;;
10440;SDS011;5268;49.346;9.522;2023-10-19T20:05:55;12.88;;;8.55;;
10440;SDS011;5268;49.346;9.522;2023-10-19T20:10:58;10.25;;;9.15;;
10440;SDS011;5268;49.346;9.522;2023-10-19T20:16:01;10.65;;;9.55;;
10440;SDS011;5268;49.346;9.522;2023-10-19T20:21:03;12.02;;;9.68;;
10440;SDS011;5268;49.346;9.522;2023-10-19T20:26:05;10.13;;;8.43;;
10440;SDS011;5268;49.346;9.522;2023-10-19T20:31:09;8.77;;;7.85;;
10440;SDS011;5268;49.346;9.522;2023-10-19T20:36:11;10.48;;;8.65;;
10440;SDS011;5268;49.346;9.522;2023-10-19T20:41:14;12.00;;;10.80;;
10440;SDS011;5268;49.346;9.522;2023-10-19T20:46:17;10.88;;;9.77;;
10440;SDS011;5268;49.346;9.522;2023-10-19T20:51:19;12.32;;;10.52;;
10440;SDS011;5268;49.346;9.522;2023-10-19T20:56:21;12.10;;;10.65;;
10440;SDS011;5268;49.346;9.522;2023-10-19T21:01:25;11.57;;;8.40;;
10440;SDS011;5268;49.346;9.522;2023-10-19T21:06:27;9.63;;;8.63;;
10440;SDS011;5268;49.346;9.522;2023-10-19T21:11:32;9.02;;;8.10;;
10440;SDS011;5268;49.346;9.522;2023-10-19T21:16:35;9.40;;;8.40;;
10440;SDS011;5268;49.346;9.522;2023-10-19T21:21:37;9.10;;;8.23;;
10440;SDS011;5268;49.346;9.522;2023-10-19T21:26:39;8.80;;;8.00;;
10440;SDS011;5268;49.346;9.522;2023-10-19T21:31:45;8.95;;;8.05;;
10440;SDS011;5268;49.346;9.522;2023-10-19T21:36:47;8.93;;;8.02;;
10440;SDS011;5268;49.346;9.522;2023-10-19T21:41:49;9.55;;;8.65;;
10440;SDS011;5268;49.346;9.522;2023-10-19T21:46:52;13.43;;;8.93;;
10440;SDS011;5268;49.346;9.522;2023-10-19T21:51:55;10.18;;;8.80;;
